createdAt,value
2018-12-14T00:02:06.621Z,2.00
2018-12-14T00:04:34.145Z,1.90
2018-12-14T00:07:02.420Z,1.90
2018-12-14T00:09:29.844Z,1.90
2018-12-14T00:11:57.288Z,1.80
2018-12-14T00:14:25.000Z,1.90
2018-12-14T00:16:52.549Z,1.90
2018-12-14T00:19:20.042Z,1.90
2018-12-14T00:21:47.464Z,1.90
2018-12-14T00:24:14.880Z,1.90
2018-12-14T00:26:43.208Z,1.90
2018-12-14T00:29:10.804Z,1.90
2018-12-14T00:31:38.164Z,1.80
2018-12-14T00:34:05.618Z,1.80
2018-12-14T00:36:33.207Z,1.80
2018-12-14T00:39:00.637Z,1.80
2018-12-14T00:41:28.099Z,1.80
2018-12-14T00:43:55.549Z,1.80
2018-12-14T00:46:23.064Z,1.70
2018-12-14T00:48:50.628Z,1.70
2018-12-14T00:51:18.087Z,1.70
2018-12-14T00:53:45.495Z,1.70
2018-12-14T00:56:12.942Z,1.70
2018-12-14T00:58:40.462Z,1.70
2018-12-14T01:01:07.949Z,1.70
2018-12-14T01:03:36.218Z,1.70
2018-12-14T01:06:03.612Z,1.70
2018-12-14T01:08:31.005Z,1.70
2018-12-14T01:10:58.426Z,1.80
2018-12-14T01:13:27.381Z,1.80
2018-12-14T01:15:54.926Z,1.80
2018-12-14T01:18:22.380Z,1.80
2018-12-14T01:20:49.798Z,1.80
2018-12-14T01:23:17.225Z,1.80
2018-12-14T01:25:44.673Z,1.80
2018-12-14T01:28:12.142Z,1.80
2018-12-14T01:30:39.678Z,1.80
2018-12-14T01:33:07.267Z,1.80
2018-12-14T01:35:34.657Z,1.80
2018-12-14T01:38:02.049Z,1.80
2018-12-14T01:40:29.488Z,1.80
2018-12-14T01:42:57.057Z,1.80
2018-12-14T01:45:24.445Z,1.70
2018-12-14T01:47:51.882Z,1.70
2018-12-14T01:50:19.433Z,1.60
2018-12-14T01:52:46.923Z,1.60
2018-12-14T01:55:14.305Z,1.60
2018-12-14T01:57:41.960Z,1.60
2018-12-14T02:00:09.377Z,1.60
2018-12-14T02:02:36.845Z,1.60
2018-12-14T02:05:04.689Z,1.60
2018-12-14T02:07:32.152Z,1.70
2018-12-14T02:09:59.576Z,1.70
2018-12-14T02:12:27.064Z,1.70
2018-12-14T02:14:54.619Z,1.70
2018-12-14T02:17:22.004Z,1.70
2018-12-14T02:19:49.418Z,1.70
2018-12-14T02:22:16.802Z,1.60
2018-12-14T02:24:44.212Z,1.60
2018-12-14T02:27:11.605Z,1.60
2018-12-14T02:29:39.096Z,1.60
2018-12-14T02:32:06.717Z,1.50
2018-12-14T02:34:34.237Z,1.50
2018-12-14T02:37:01.667Z,1.50
2018-12-14T02:39:29.264Z,1.50
2018-12-14T02:41:56.754Z,1.50
2018-12-14T02:44:24.324Z,1.50
2018-12-14T02:46:51.792Z,1.40
2018-12-14T02:49:19.237Z,1.40
2018-12-14T02:51:46.689Z,1.40
2018-12-14T02:54:14.159Z,1.40
2018-12-14T02:56:41.712Z,1.40
2018-12-14T02:59:09.100Z,1.40
2018-12-14T03:01:36.759Z,1.40
2018-12-14T03:04:04.149Z,1.40
2018-12-14T03:06:31.561Z,1.40
2018-12-14T03:08:58.949Z,1.40
2018-12-14T03:11:26.371Z,1.30
2018-12-14T03:13:53.912Z,1.30
2018-12-14T03:16:21.327Z,1.30
2018-12-14T03:18:48.821Z,1.30
2018-12-14T03:21:16.308Z,1.30
2018-12-14T03:23:44.594Z,1.30
2018-12-14T03:26:12.158Z,1.30
2018-12-14T03:28:39.676Z,1.40
2018-12-14T03:31:07.090Z,1.40
2018-12-14T03:33:34.542Z,1.40
2018-12-14T03:36:02.073Z,1.40
2018-12-14T03:38:30.223Z,1.40
2018-12-14T03:40:57.684Z,1.30
2018-12-14T03:43:25.148Z,1.40
2018-12-14T03:45:52.664Z,1.30
2018-12-14T03:48:20.098Z,1.30
2018-12-14T03:50:47.494Z,1.30
2018-12-14T03:53:14.886Z,1.30
2018-12-14T03:55:42.442Z,1.30
2018-12-14T03:58:09.949Z,1.30
2018-12-14T04:00:37.516Z,1.30
2018-12-14T04:03:04.916Z,1.30
2018-12-14T04:05:32.509Z,1.30
2018-12-14T04:07:59.870Z,1.30
2018-12-14T04:10:27.317Z,1.30
2018-12-14T04:12:54.754Z,1.30
2018-12-14T04:15:22.180Z,1.40
2018-12-14T04:17:49.695Z,1.40
2018-12-14T04:20:17.141Z,1.40
2018-12-14T04:22:44.554Z,1.30
2018-12-14T04:25:12.004Z,1.30
2018-12-14T04:27:39.399Z,1.20
2018-12-14T04:30:07.016Z,1.20
2018-12-14T04:32:34.420Z,1.20
2018-12-14T04:35:01.809Z,1.20
2018-12-14T04:37:29.242Z,1.20
2018-12-14T04:39:57.157Z,1.20
2018-12-14T04:42:24.900Z,1.20
2018-12-14T04:44:53.073Z,1.20
2018-12-14T04:47:20.574Z,1.20
2018-12-14T04:49:48.105Z,1.20
2018-12-14T04:52:15.520Z,1.20
2018-12-14T04:54:43.825Z,1.10
2018-12-14T04:57:11.241Z,1.10
2018-12-14T04:59:38.803Z,1.10
2018-12-14T05:02:06.200Z,1.10
2018-12-14T05:04:33.589Z,1.10
2018-12-14T05:07:01.088Z,1.10
2018-12-14T05:09:28.559Z,1.10
2018-12-14T05:11:55.996Z,1.00
2018-12-14T05:14:23.613Z,1.00
2018-12-14T05:16:51.123Z,1.00
2018-12-14T05:19:18.599Z,1.00
2018-12-14T05:21:46.138Z,1.10
2018-12-14T05:24:13.576Z,1.10
2018-12-14T05:26:41.002Z,1.10
2018-12-14T05:29:08.381Z,1.20
2018-12-14T05:31:35.793Z,1.20
2018-12-14T05:34:03.200Z,1.20
2018-12-14T05:36:30.683Z,1.20
2018-12-14T05:38:58.164Z,1.20
2018-12-14T05:41:25.594Z,1.20
2018-12-14T05:43:52.972Z,1.30
2018-12-14T05:46:20.378Z,1.20
2018-12-14T05:48:47.772Z,1.30
2018-12-14T05:51:15.348Z,1.30
2018-12-14T05:53:42.736Z,1.20
2018-12-14T05:56:10.135Z,1.20
2018-12-14T05:58:37.529Z,1.20
2018-12-14T06:01:05.028Z,1.20
2018-12-14T06:03:32.464Z,1.20
2018-12-14T06:05:59.863Z,1.20
2018-12-14T06:08:27.258Z,1.10
2018-12-14T06:10:54.653Z,1.10
2018-12-14T06:13:22.061Z,1.20
2018-12-14T06:15:49.577Z,1.20
2018-12-14T06:18:17.044Z,1.20
2018-12-14T06:20:44.593Z,1.20
2018-12-14T06:23:12.794Z,1.30
2018-12-14T06:25:40.364Z,1.30
2018-12-14T06:28:07.792Z,1.30
2018-12-14T06:30:35.879Z,1.30
2018-12-14T06:33:03.413Z,1.30
2018-12-14T06:35:30.909Z,1.30
2018-12-14T06:37:58.356Z,1.30
2018-12-14T06:40:26.142Z,1.20
2018-12-14T06:42:53.556Z,1.20
2018-12-14T06:45:20.936Z,1.30
2018-12-14T06:47:48.395Z,1.30
2018-12-14T06:50:15.934Z,1.30
2018-12-14T06:52:43.433Z,1.20
2018-12-14T06:55:10.853Z,1.30
2018-12-14T06:57:38.300Z,1.30
2018-12-14T07:00:06.960Z,1.20
2018-12-14T07:02:34.505Z,1.20
2018-12-14T07:05:01.909Z,1.10
2018-12-14T07:07:29.392Z,1.10
2018-12-14T07:09:56.832Z,1.10
2018-12-14T07:12:24.221Z,1.10
2018-12-14T07:14:51.647Z,1.10
2018-12-14T07:17:19.184Z,1.20
2018-12-14T07:19:46.606Z,1.10
2018-12-14T07:22:14.109Z,1.20
2018-12-14T07:24:41.526Z,1.20
2018-12-14T07:27:08.940Z,1.20
2018-12-14T07:29:36.385Z,1.20
2018-12-14T07:32:03.860Z,1.20
2018-12-14T07:34:31.307Z,1.30
2018-12-14T07:36:58.763Z,1.30
2018-12-14T07:39:26.228Z,1.30
2018-12-14T07:41:53.774Z,1.30
2018-12-14T07:44:21.245Z,1.20
2018-12-14T07:46:48.780Z,1.20
2018-12-14T07:49:16.462Z,1.20
2018-12-14T07:51:43.914Z,1.20
2018-12-14T07:54:11.324Z,1.20
2018-12-14T07:56:38.756Z,1.20
2018-12-14T07:59:06.461Z,1.30
2018-12-14T08:01:34.256Z,1.30
2018-12-14T08:04:01.687Z,1.30
2018-12-14T08:06:29.162Z,1.40
2018-12-14T08:08:56.728Z,1.40
2018-12-14T08:11:24.155Z,1.40
2018-12-14T08:13:51.604Z,1.40
2018-12-14T08:16:19.116Z,1.40
2018-12-14T08:18:46.524Z,1.40
2018-12-14T08:21:14.720Z,1.40
2018-12-14T08:23:42.188Z,1.40
2018-12-14T08:26:10.165Z,1.40
2018-12-14T08:28:37.888Z,1.50
2018-12-14T08:31:05.739Z,1.50
2018-12-14T08:33:33.138Z,1.50
2018-12-14T08:36:01.243Z,1.60
2018-12-14T08:38:28.862Z,1.60
2018-12-14T08:40:56.360Z,1.60
2018-12-14T08:43:23.830Z,1.60
2018-12-14T08:45:51.243Z,1.60
2018-12-14T08:48:18.776Z,1.60
2018-12-14T08:50:46.278Z,1.60
2018-12-14T08:53:13.814Z,1.60
2018-12-14T08:55:41.233Z,1.60
2018-12-14T08:58:08.644Z,1.60
2018-12-14T09:00:36.037Z,1.60
2018-12-14T09:03:04.077Z,1.70
2018-12-14T09:05:31.597Z,1.70
2018-12-14T09:07:59.579Z,1.80
2018-12-14T09:10:27.053Z,1.80
2018-12-14T09:12:54.641Z,1.80
2018-12-14T09:15:22.052Z,1.80
2018-12-14T09:17:49.532Z,1.80
2018-12-14T09:20:17.346Z,1.90
2018-12-14T09:22:44.870Z,1.80
2018-12-14T09:25:12.430Z,1.80
2018-12-14T09:27:39.887Z,1.90
2018-12-14T09:30:07.445Z,2.00
2018-12-14T09:32:34.904Z,2.00
2018-12-14T09:35:02.393Z,2.00
2018-12-14T09:37:30.161Z,2.00
2018-12-14T09:39:57.672Z,2.00
2018-12-14T09:42:25.145Z,2.00
2018-12-14T09:44:52.612Z,2.00
2018-12-14T09:47:20.004Z,2.00
2018-12-14T09:49:47.508Z,2.00
2018-12-14T09:52:14.978Z,2.00
2018-12-14T09:54:42.384Z,2.10
2018-12-14T09:57:09.784Z,2.10
2018-12-14T09:59:37.260Z,2.10
2018-12-14T10:02:04.665Z,2.10
2018-12-14T10:04:32.072Z,2.10
2018-12-14T10:06:59.468Z,2.10
2018-12-14T10:09:26.903Z,2.10
2018-12-14T10:11:55.282Z,2.20
2018-12-14T10:14:23.131Z,2.30
2018-12-14T10:16:50.530Z,2.30
2018-12-14T10:19:17.960Z,2.40
2018-12-14T10:21:45.388Z,2.40
2018-12-14T10:24:12.845Z,2.40
2018-12-14T10:26:40.604Z,2.40
2018-12-14T10:29:08.020Z,2.40
2018-12-14T10:31:35.915Z,2.30
2018-12-14T10:34:03.400Z,2.40
2018-12-14T10:36:30.827Z,2.40
2018-12-14T10:38:58.302Z,2.40
2018-12-14T10:41:25.761Z,2.40
2018-12-14T10:43:53.237Z,2.50
2018-12-14T10:46:20.781Z,2.50
2018-12-14T10:48:48.342Z,2.60
2018-12-14T10:51:15.845Z,2.60
2018-12-14T10:53:43.530Z,2.60
2018-12-14T10:56:11.048Z,2.50
2018-12-14T10:58:38.454Z,2.60
2018-12-14T11:01:14.398Z,2.50
2018-12-14T11:03:41.125Z,2.60
2018-12-14T11:06:08.642Z,2.60
2018-12-14T11:08:36.113Z,2.60
2018-12-14T11:11:03.551Z,2.70
2018-12-14T11:13:31.014Z,2.70
2018-12-14T11:15:58.486Z,2.60
2018-12-14T11:18:25.940Z,2.60
2018-12-14T11:20:53.386Z,2.70
2018-12-14T11:23:20.783Z,2.70
2018-12-14T11:25:48.187Z,2.70
2018-12-14T11:28:15.751Z,2.80
2018-12-14T11:30:43.144Z,2.80
2018-12-14T11:33:10.576Z,2.80
2018-12-14T11:35:37.986Z,2.80
2018-12-14T11:38:05.384Z,2.70
2018-12-14T11:40:32.932Z,2.80
2018-12-14T11:43:00.908Z,2.80
2018-12-14T11:45:28.311Z,2.80
2018-12-14T11:47:55.716Z,2.80
2018-12-14T11:50:23.120Z,2.80
2018-12-14T11:52:50.508Z,2.80
2018-12-14T11:55:18.101Z,2.80
2018-12-14T11:57:45.685Z,2.80
2018-12-14T12:00:13.816Z,2.80
2018-12-14T12:02:43.287Z,2.80
2018-12-14T12:05:10.634Z,2.70
2018-12-14T12:07:38.980Z,2.80
2018-12-14T12:10:07.493Z,2.80
2018-12-14T12:12:34.928Z,2.80
2018-12-14T12:15:03.104Z,2.80
2018-12-14T12:17:30.770Z,2.80
2018-12-14T12:19:58.218Z,2.80
2018-12-14T12:22:25.694Z,2.80
2018-12-14T12:24:53.094Z,2.80
2018-12-14T12:27:20.562Z,2.80
2018-12-14T12:29:48.086Z,2.80
2018-12-14T12:32:15.604Z,2.80
2018-12-14T12:34:42.990Z,2.80
2018-12-14T12:37:10.510Z,2.70
2018-12-14T12:39:37.949Z,2.60
2018-12-14T12:42:05.519Z,2.70
2018-12-14T12:44:33.694Z,2.70
2018-12-14T12:47:01.467Z,2.70
2018-12-14T12:49:28.849Z,2.80
2018-12-14T12:51:56.333Z,2.70
2018-12-14T12:54:23.753Z,2.70
2018-12-14T12:56:51.231Z,2.60
2018-12-14T12:59:18.624Z,2.60
2018-12-14T13:01:46.224Z,2.60
2018-12-14T13:04:13.687Z,2.60
2018-12-14T13:06:41.225Z,2.50
2018-12-14T13:09:08.789Z,2.60
2018-12-14T13:11:36.340Z,2.50
2018-12-14T13:14:03.810Z,2.50
2018-12-14T13:16:31.304Z,2.50
2018-12-14T13:18:58.721Z,2.50
2018-12-14T13:21:26.230Z,2.40
2018-12-14T13:23:53.822Z,2.30
2018-12-14T13:26:21.292Z,2.30
2018-12-14T13:28:48.751Z,2.20
2018-12-14T13:31:16.353Z,2.20
2018-12-14T13:33:43.721Z,2.20
2018-12-14T13:36:11.291Z,2.20
2018-12-14T13:38:38.750Z,2.20
2018-12-14T13:41:06.789Z,2.10
2018-12-14T13:43:34.254Z,2.20
2018-12-14T13:46:01.965Z,2.10
2018-12-14T13:48:29.398Z,2.10
2018-12-14T13:50:57.524Z,2.10
2018-12-14T13:53:24.980Z,2.10
2018-12-14T13:55:52.569Z,2.00
2018-12-14T13:58:20.002Z,2.00
2018-12-14T14:00:47.556Z,2.00
2018-12-14T14:03:14.956Z,2.00
2018-12-14T14:05:42.361Z,2.00
2018-12-14T14:08:09.816Z,2.00
2018-12-14T14:10:37.261Z,1.90
2018-12-14T14:13:04.733Z,1.90
2018-12-14T14:15:32.164Z,1.90
2018-12-14T14:17:59.706Z,1.90
2018-12-14T14:20:27.114Z,1.90
2018-12-14T14:22:54.614Z,1.90
2018-12-14T14:25:22.912Z,1.90
2018-12-14T14:27:50.366Z,1.80
2018-12-14T14:30:17.742Z,1.80
2018-12-14T14:32:45.178Z,1.70
2018-12-14T14:35:12.711Z,1.70
2018-12-14T14:37:40.106Z,1.70
2018-12-14T14:40:07.503Z,1.70
2018-12-14T14:42:34.932Z,1.60
2018-12-14T14:45:02.409Z,1.60
2018-12-14T14:47:29.871Z,1.60
2018-12-14T14:49:57.265Z,1.70
2018-12-14T14:52:24.772Z,1.60
2018-12-14T14:54:52.238Z,1.60
2018-12-14T14:57:19.644Z,1.60
2018-12-14T14:59:47.917Z,1.60
2018-12-14T15:02:15.359Z,1.60
2018-12-14T15:04:42.735Z,1.60
2018-12-14T15:07:10.137Z,1.50
2018-12-14T15:09:37.646Z,1.50
2018-12-14T15:12:05.151Z,1.60
2018-12-14T15:14:32.690Z,1.60
2018-12-14T15:17:00.085Z,1.60
2018-12-14T15:19:27.613Z,1.60
2018-12-14T15:21:55.006Z,1.60
2018-12-14T15:24:22.435Z,1.70
2018-12-14T15:26:49.816Z,1.70
2018-12-14T15:29:17.365Z,1.70
2018-12-14T15:31:45.439Z,1.70
2018-12-14T15:34:14.531Z,1.70
2018-12-14T15:36:42.284Z,1.80
2018-12-14T15:39:09.728Z,1.80
2018-12-14T15:41:37.492Z,1.70
2018-12-14T15:44:05.014Z,1.70
2018-12-14T15:46:32.498Z,1.70
2018-12-14T15:49:00.061Z,1.70
2018-12-14T15:51:27.540Z,1.80
2018-12-14T15:53:55.000Z,1.80
2018-12-14T15:56:22.568Z,1.70
2018-12-14T15:58:50.028Z,1.70
2018-12-14T16:01:17.614Z,1.80
2018-12-14T16:03:45.081Z,1.80
2018-12-14T16:06:12.693Z,1.70
2018-12-14T16:08:40.151Z,1.70
2018-12-14T16:11:07.659Z,1.70
2018-12-14T16:13:35.090Z,1.80
2018-12-14T16:16:02.594Z,1.80
2018-12-14T16:18:30.021Z,1.80
2018-12-14T16:20:57.487Z,1.80
2018-12-14T16:23:24.963Z,1.80
2018-12-14T16:25:52.353Z,1.80
2018-12-14T16:28:19.964Z,1.80
2018-12-14T16:30:47.406Z,1.80
2018-12-14T16:33:14.898Z,1.70
2018-12-14T16:35:42.408Z,1.70
2018-12-14T16:38:10.189Z,1.70
2018-12-14T16:40:37.680Z,1.70
2018-12-14T16:43:05.082Z,1.70
2018-12-14T16:45:32.486Z,1.70
2018-12-14T16:47:59.992Z,1.70
2018-12-14T16:50:27.504Z,1.80
2018-12-14T16:52:54.934Z,1.70
2018-12-14T16:55:22.365Z,1.80
2018-12-14T16:57:49.922Z,1.70
2018-12-14T17:00:18.280Z,1.70
2018-12-14T17:02:45.864Z,1.70
2018-12-14T17:05:13.377Z,1.70
2018-12-14T17:07:40.885Z,1.70
2018-12-14T17:10:08.454Z,1.60
2018-12-14T17:12:35.944Z,1.60
2018-12-14T17:15:03.472Z,1.60
2018-12-14T17:17:31.024Z,1.50
2018-12-14T17:19:58.457Z,1.60
2018-12-14T17:22:26.001Z,1.60
2018-12-14T17:24:53.565Z,1.60
2018-12-14T17:27:20.957Z,1.60
2018-12-14T17:29:48.477Z,1.60
2018-12-14T17:32:15.870Z,1.60
2018-12-14T17:34:43.304Z,1.60
2018-12-14T17:37:10.744Z,1.60
2018-12-14T17:39:38.207Z,1.60
2018-12-14T17:42:05.609Z,1.50
2018-12-14T17:44:33.060Z,1.50
2018-12-14T17:47:00.630Z,1.50
2018-12-14T17:49:28.085Z,1.50
2018-12-14T17:51:55.694Z,1.50
2018-12-14T17:54:23.152Z,1.50
2018-12-14T17:56:50.696Z,1.50
2018-12-14T17:59:18.225Z,1.50
2018-12-14T18:01:45.815Z,1.50
2018-12-14T18:04:13.245Z,1.50
2018-12-14T18:06:40.793Z,1.50
2018-12-14T18:09:08.240Z,1.50
2018-12-14T18:11:35.718Z,1.50
2018-12-14T18:14:03.218Z,1.50
2018-12-14T18:16:30.837Z,1.50
2018-12-14T18:18:58.277Z,1.50
2018-12-14T18:21:25.667Z,1.50
2018-12-14T18:23:53.140Z,1.50
2018-12-14T18:26:20.568Z,1.50
2018-12-14T18:28:48.857Z,1.50
2018-12-14T18:31:16.393Z,1.60
2018-12-14T18:33:43.816Z,1.50
2018-12-14T18:36:11.321Z,1.50
2018-12-14T18:38:39.697Z,1.50
2018-12-14T18:41:07.260Z,1.50
2018-12-14T18:43:34.666Z,1.50
2018-12-14T18:46:02.092Z,1.50
2018-12-14T18:48:29.621Z,1.50
2018-12-14T18:50:58.205Z,1.50
2018-12-14T18:53:25.700Z,1.60
2018-12-14T18:55:53.184Z,1.60
2018-12-14T18:58:20.626Z,1.50
2018-12-14T19:00:48.145Z,1.50
2018-12-14T19:03:15.617Z,1.50
2018-12-14T19:05:43.129Z,1.50
2018-12-14T19:08:10.672Z,1.50
2018-12-14T19:10:38.137Z,1.50
2018-12-14T19:13:05.659Z,1.50
2018-12-14T19:15:33.149Z,1.50
2018-12-14T19:18:00.602Z,1.40
2018-12-14T19:20:28.041Z,1.40
2018-12-14T19:22:55.483Z,1.40
2018-12-14T19:25:22.966Z,1.40
2018-12-14T19:27:50.388Z,1.40
2018-12-14T19:30:17.969Z,1.40
2018-12-14T19:32:45.413Z,1.30
2018-12-14T19:35:13.020Z,1.40
2018-12-14T19:37:41.536Z,1.30
2018-12-14T19:40:09.516Z,1.40
2018-12-14T19:42:37.147Z,1.30
2018-12-14T19:45:05.379Z,1.30
2018-12-14T19:47:32.858Z,1.30
2018-12-14T19:50:00.340Z,1.40
2018-12-14T19:52:27.844Z,1.30
2018-12-14T19:54:55.405Z,1.30
2018-12-14T19:57:22.867Z,1.30
2018-12-14T19:59:50.361Z,1.40
2018-12-14T20:02:17.909Z,1.30
2018-12-14T20:04:45.424Z,1.30
2018-12-14T20:07:12.898Z,1.30
2018-12-14T20:09:40.408Z,1.40
2018-12-14T20:12:07.816Z,1.30
2018-12-14T20:14:35.308Z,1.40
2018-12-14T20:17:02.743Z,1.40
2018-12-14T20:19:30.224Z,1.40
2018-12-14T20:21:57.670Z,1.40
2018-12-14T20:24:25.161Z,1.30
2018-12-14T20:26:52.556Z,1.30
2018-12-14T20:29:20.068Z,1.30
2018-12-14T20:31:47.526Z,1.30
2018-12-14T20:34:14.948Z,1.30
2018-12-14T20:36:42.433Z,1.30
2018-12-14T20:39:09.855Z,1.30
2018-12-14T20:41:37.360Z,1.30
2018-12-14T20:44:04.780Z,1.20
2018-12-14T20:46:32.348Z,1.20
2018-12-14T20:48:59.773Z,1.20
2018-12-14T20:51:27.284Z,1.20
2018-12-14T20:53:54.892Z,1.20
2018-12-14T20:56:22.454Z,1.30
2018-12-14T20:58:49.943Z,1.30
2018-12-14T21:01:17.352Z,1.30
2018-12-14T21:03:44.845Z,1.30
2018-12-14T21:06:12.320Z,1.30
2018-12-14T21:08:39.758Z,1.30
2018-12-14T21:11:07.286Z,1.30
2018-12-14T21:13:34.804Z,1.30
2018-12-14T21:16:02.443Z,1.20
2018-12-14T21:18:29.962Z,1.20
2018-12-14T21:20:58.027Z,1.20
2018-12-14T21:23:25.560Z,1.20
2018-12-14T21:25:52.971Z,1.20
2018-12-14T21:28:20.538Z,1.10
2018-12-14T21:30:48.080Z,1.10
2018-12-14T21:33:15.572Z,1.10
2018-12-14T21:35:43.067Z,1.10
2018-12-14T21:38:10.464Z,1.10
2018-12-14T21:40:38.021Z,1.10
2018-12-14T21:43:05.500Z,1.20
2018-12-14T21:45:32.985Z,1.20
2018-12-14T21:48:00.703Z,1.10
2018-12-14T21:50:28.331Z,1.10
2018-12-14T21:52:55.936Z,1.10
2018-12-14T21:55:23.420Z,1.10
2018-12-14T21:57:50.888Z,1.10
2018-12-14T22:00:18.352Z,1.10
2018-12-14T22:02:45.864Z,1.00
2018-12-14T22:05:13.453Z,1.00
2018-12-14T22:07:40.876Z,1.00
2018-12-14T22:10:08.780Z,1.00
2018-12-14T22:12:36.218Z,1.00
2018-12-14T22:15:04.042Z,1.00
2018-12-14T22:17:31.530Z,1.00
2018-12-14T22:19:59.030Z,0.90
2018-12-14T22:22:26.443Z,1.00
2018-12-14T22:24:53.960Z,1.00
2018-12-14T22:27:21.355Z,1.00
2018-12-14T22:29:48.851Z,1.00
2018-12-14T22:32:16.281Z,1.00
2018-12-14T22:34:43.680Z,1.00
2018-12-14T22:37:11.092Z,1.00
2018-12-14T22:39:38.596Z,1.00
2018-12-14T22:42:06.005Z,1.00
2018-12-14T22:44:33.457Z,0.90
2018-12-14T22:47:00.913Z,0.90
2018-12-14T22:49:28.405Z,0.90
2018-12-14T22:51:55.900Z,0.90
2018-12-14T22:54:23.311Z,0.90
2018-12-14T22:56:50.754Z,0.90
2018-12-14T22:59:18.243Z,0.90
2018-12-14T23:01:45.718Z,0.90
2018-12-14T23:04:13.155Z,0.90
2018-12-14T23:06:40.612Z,0.90
2018-12-14T23:09:08.032Z,0.90
2018-12-14T23:11:35.588Z,0.90
2018-12-14T23:14:03.118Z,0.90
2018-12-14T23:16:30.549Z,0.90
2018-12-14T23:18:58.090Z,0.90
2018-12-14T23:21:25.558Z,0.80
2018-12-14T23:23:53.019Z,0.80
2018-12-14T23:26:20.465Z,0.80
2018-12-14T23:28:48.048Z,0.90
2018-12-14T23:31:15.510Z,0.90
2018-12-14T23:33:42.920Z,0.90
2018-12-14T23:36:10.396Z,0.90
2018-12-14T23:38:37.846Z,0.90
2018-12-14T23:41:05.309Z,0.90
2018-12-14T23:43:32.760Z,0.80
2018-12-14T23:46:00.233Z,0.80
2018-12-14T23:48:27.668Z,0.80
2018-12-14T23:50:55.148Z,0.80
2018-12-14T23:53:22.617Z,0.80
2018-12-14T23:55:50.062Z,0.80
2018-12-14T23:58:17.530Z,0.80
